Time;durP1;ratioP1;P1;durP2;ratioP2;P2;SDS_P1;SDS_P2;PMS_P1;PMS_P2;Temp;Humidity;BMP_temperature;BMP_pressure;BME280_temperature;BME280_humidity;BME280_pressure;Samples;Min_cycle;Max_cycle;Signal;HPM_P1;HPM_P2
2022/08/13 00:00:00;;;;;;;1.55;0.90;;;26.50;60.80;;;;;;5032543;28;20030;-24
2022/08/13 00:02:26;;;;;;;2.58;0.88;;;26.50;60.80;;;;;;5032653;28;20021;-24
2022/08/13 00:05:01;;;;;;;4.78;0.80;;;26.50;60.90;;;;;;5032624;28;20071;-24
2022/08/13 00:07:28;;;;;;;2.33;0.80;;;26.50;60.90;;;;;;5032021;28;20095;-24
2022/08/13 00:09:55;;;;;;;2.47;0.70;;;26.50;61.00;;;;;;5032362;28;20063;-26
2022/08/13 00:15:29;;;;;;;4.35;0.90;;;26.50;60.90;;;;;;5032763;28;20052;-24
2022/08/13 00:18:02;;;;;;;2.03;1.02;;;26.50;61.00;;;;;;5032296;28;20026;-24
2022/08/13 00:20:39;;;;;;;2.53;0.60;;;26.50;61.00;;;;;;5032417;28;20029;-24
2022/08/13 00:23:07;;;;;;;1.95;0.90;;;26.50;61.00;;;;;;5032308;28;20463;-24
2022/08/13 00:25:34;;;;;;;2.00;0.80;;;26.50;61.00;;;;;;5032314;28;20017;-24
2022/08/13 00:28:02;;;;;;;2.22;0.70;;;26.50;61.00;;;;;;5032237;28;20025;-26
2022/08/13 00:30:31;;;;;;;0.95;0.63;;;26.40;61.00;;;;;;5031907;28;20025;-26
2022/08/13 00:32:59;;;;;;;1.52;0.88;;;26.40;60.90;;;;;;5014455;28;20025;-26
2022/08/13 00:35:25;;;;;;;2.60;1.00;;;26.50;61.00;;;;;;5032219;28;20148;-24
2022/08/13 00:37:51;;;;;;;1.05;0.73;;;26.40;60.90;;;;;;5031961;28;20556;-26
2022/08/13 00:40:17;;;;;;;2.47;0.65;;;26.40;61.00;;;;;;5031861;28;20061;-26
2022/08/13 00:42:43;;;;;;;3.53;0.70;;;26.40;61.00;;;;;;5014295;28;20021;-26
2022/08/13 00:45:09;;;;;;;0.93;0.80;;;26.40;61.00;;;;;;5031992;28;20021;-26
2022/08/13 00:50:20;;;;;;;;;;;26.40;60.90;;;;;;5032327;28;20080;-26
2022/08/13 00:52:48;;;;;;;1.70;0.73;;;26.40;61.00;;;;;;5031829;28;19909;-26
2022/08/13 00:55:17;;;;;;;1.35;0.63;;;26.30;60.90;;;;;;5031859;28;20391;-26
2022/08/13 00:57:45;;;;;;;4.35;0.85;;;26.40;61.00;;;;;;5031745;28;20109;-26
2022/08/13 01:00:15;;;;;;;1.13;0.70;;;26.40;61.00;;;;;;5031685;28;20087;-26
2022/08/13 01:02:46;;;;;;;1.00;0.68;;;26.40;61.00;;;;;;5031829;28;20430;-26
2022/08/13 01:05:13;;;;;;;0.73;0.60;;;26.30;61.80;;;;;;5031963;28;20013;-26
2022/08/13 01:07:41;;;;;;;1.92;0.68;;;26.30;60.90;;;;;;5031779;28;20031;-26
2022/08/13 01:10:08;;;;;;;3.50;0.80;;;26.30;61.00;;;;;;5031499;28;20075;-26
2022/08/13 01:12:36;;;;;;;1.45;0.70;;;26.30;61.00;;;;;;5031885;28;20116;-25
2022/08/13 01:15:04;;;;;;;1.38;0.60;;;26.30;61.00;;;;;;5031800;28;20022;-26
2022/08/13 01:17:30;;;;;;;2.47;0.70;;;26.30;61.00;;;;;;5031684;28;20030;-26
2022/08/13 01:19:56;;;;;;;2.45;0.70;;;26.30;61.00;;;;;;5034954;28;20108;-26
2022/08/13 01:22:23;;;;;;;0.80;0.50;;;26.30;61.00;;;;;;5035581;28;20026;-26
2022/08/13 01:24:50;;;;;;;0.95;0.50;;;26.30;61.00;;;;;;5035778;28;20501;-26
2022/08/13 01:27:18;;;;;;;1.70;0.60;;;26.30;61.00;;;;;;5035567;28;20033;-26
2022/08/13 01:29:46;;;;;;;1.17;0.65;;;26.30;61.10;;;;;;5035499;28;20025;-26
2022/08/13 01:32:15;;;;;;;3.58;0.68;;;26.30;61.10;;;;;;5035348;28;20113;-26
2022/08/13 01:34:45;;;;;;;3.03;0.80;;;26.30;61.10;;;;;;5035498;28;20025;-26
2022/08/13 01:37:13;;;;;;;0.98;0.68;;;26.30;61.10;;;;;;5035118;28;20083;-26
2022/08/13 01:39:39;;;;;;;1.30;0.73;;;26.30;61.10;;;;;;5035240;28;20441;-26
2022/08/13 01:42:20;;;;;;;2.15;0.70;;;26.30;61.10;;;;;;5035095;28;20029;-26
2022/08/13 01:44:49;;;;;;;0.55;0.50;;;26.30;61.10;;;;;;5035364;28;20032;-26
2022/08/13 01:52:45;;;;;;;0.77;0.50;;;26.20;61.10;;;;;;5035120;28;20087;-26
2022/08/13 01:55:12;;;;;;;0.80;0.60;;;26.20;61.10;;;;;;5035146;28;20030;-26
2022/08/13 01:57:40;;;;;;;2.28;0.90;;;26.20;61.10;;;;;;5035396;28;20026;-26
2022/08/13 02:00:08;;;;;;;0.68;0.68;;;26.20;61.10;;;;;;5034749;28;20045;-26
2022/08/13 02:02:34;;;;;;;1.92;0.82;;;26.20;61.40;;;;;;5034954;28;20036;-26
2022/08/13 02:05:00;;;;;;;3.10;0.75;;;26.20;61.10;;;;;;5034927;28;20096;-26
2022/08/13 02:07:25;;;;;;;2.53;0.77;;;26.20;61.10;;;;;;5034809;28;20080;-26
2022/08/13 02:09:52;;;;;;;1.77;0.75;;;26.20;61.10;;;;;;5034722;28;20033;-26
2022/08/13 02:12:18;;;;;;;1.42;0.63;;;26.20;61.10;;;;;;5034480;28;20040;-26
2022/08/13 02:14:43;;;;;;;0.60;0.50;;;26.10;61.00;;;;;;5034658;28;20025;-26
2022/08/13 02:17:25;;;;;;;3.10;0.80;;;26.10;61.00;;;;;;5034576;28;20030;-26
2022/08/13 02:19:55;;;;;;;1.05;0.60;;;26.20;61.10;;;;;;5034521;28;20029;-26
2022/08/13 02:22:22;;;;;;;1.48;0.60;;;26.10;61.00;;;;;;5034418;28;20471;-26
2022/08/13 02:24:56;;;;;;;2.15;0.73;;;26.10;61.10;;;;;;5034630;28;20018;-26
2022/08/13 02:27:24;;;;;;;1.10;0.80;;;26.10;61.00;;;;;;5034537;28;20055;-26
2022/08/13 02:29:53;;;;;;;1.02;0.52;;;26.10;61.00;;;;;;5033733;28;20435;-26
2022/08/13 02:32:19;;;;;;;2.47;0.60;;;26.10;61.00;;;;;;5034251;28;20025;-26
2022/08/13 02:34:50;;;;;;;1.13;0.70;;;26.10;61.10;;;;;;5034209;28;20026;-26
2022/08/13 02:37:21;;;;;;;1.17;0.70;;;26.10;61.10;;;;;;5034295;28;20029;-26
2022/08/13 02:39:51;;;;;;;1.90;0.80;;;26.10;61.00;;;;;;5034075;28;20026;-26
2022/08/13 02:42:19;;;;;;;1.60;0.70;;;26.10;61.10;;;;;;5034082;28;20032;-26
2022/08/13 02:44:47;;;;;;;0.80;0.77;;;26.10;61.10;;;;;;5034189;28;20026;-26
2022/08/13 02:47:15;;;;;;;0.73;0.60;;;26.10;61.10;;;;;;5034109;28;20037;-26
2022/08/13 02:49:41;;;;;;;1.65;0.70;;;26.00;61.00;;;;;;5034403;28;20037;-26
2022/08/13 02:52:09;;;;;;;0.90;0.60;;;26.00;61.10;;;;;;5033816;28;20036;-26
2022/08/13 02:54:40;;;;;;;2.30;0.63;;;26.00;61.10;;;;;;5034184;28;20364;-26
2022/08/13 02:57:06;;;;;;;1.73;0.88;;;26.00;61.10;;;;;;5034214;28;20029;-26
2022/08/13 02:59:32;;;;;;;0.63;0.52;;;26.00;61.10;;;;;;5033787;28;20064;-26
2022/08/13 03:02:00;;;;;;;1.50;0.77;;;26.00;61.10;;;;;;5033761;28;20045;-26
2022/08/13 03:04:26;;;;;;;0.70;0.50;;;26.00;61.10;;;;;;5033732;28;20033;-26
2022/08/13 03:06:51;;;;;;;1.63;0.70;;;26.00;61.20;;;;;;5015955;28;20029;-25
2022/08/13 03:09:20;;;;;;;0.57;0.50;;;26.00;61.10;;;;;;5033609;28;20053;-26
2022/08/13 03:11:47;;;;;;;1.17;0.70;;;25.90;61.00;;;;;;5033378;28;20029;-26
2022/08/13 03:14:14;;;;;;;1.00;0.70;;;25.90;61.10;;;;;;5033698;28;20026;-26
2022/08/13 03:16:40;;;;;;;0.98;0.52;;;26.00;61.20;;;;;;5033522;28;20033;-26
2022/08/13 03:19:06;;;;;;;0.82;0.60;;;26.00;61.20;;;;;;5033245;28;20033;-26
2022/08/13 03:21:41;;;;;;;1.55;0.70;;;25.90;61.10;;;;;;5033390;28;20025;-26
2022/08/13 03:24:10;;;;;;;1.52;0.82;;;25.90;61.20;;;;;;5033501;28;20025;-26
2022/08/13 03:26:38;;;;;;;2.35;0.80;;;25.90;61.10;;;;;;5033419;28;20026;-26
2022/08/13 03:29:04;;;;;;;0.75;0.60;;;25.90;61.10;;;;;;5033304;28;20091;-26
2022/08/13 03:31:30;;;;;;;1.42;0.60;;;25.90;61.20;;;;;;5033163;28;20022;-26
2022/08/13 03:33:58;;;;;;;1.02;0.50;;;25.90;61.20;;;;;;5033098;28;20028;-26
2022/08/13 03:36:26;;;;;;;0.90;0.70;;;25.90;61.20;;;;;;5033170;28;20493;-26
2022/08/13 03:38:52;;;;;;;1.17;0.60;;;25.90;61.20;;;;;;5032987;28;20470;-26
2022/08/13 03:41:17;;;;;;;1.70;0.80;;;25.90;61.20;;;;;;5032113;28;20037;-26
2022/08/13 03:43:47;;;;;;;1.92;0.60;;;25.90;61.20;;;;;;5033026;28;20033;-26
2022/08/13 03:46:14;;;;;;;1.10;0.50;;;25.80;61.10;;;;;;5032959;28;20014;-26
2022/08/13 03:48:40;;;;;;;1.88;0.68;;;25.90;61.20;;;;;;5032771;28;20025;-26
2022/08/13 03:51:07;;;;;;;1.05;0.50;;;25.80;61.10;;;;;;5033191;28;20025;-26
2022/08/13 03:53:33;;;;;;;1.65;0.88;;;25.80;61.20;;;;;;5032872;28;20382;-26
2022/08/13 03:55:59;;;;;;;3.05;1.10;;;25.80;61.20;;;;;;5032861;28;20025;-26
2022/08/13 03:58:26;;;;;;;1.15;0.60;;;25.80;61.10;;;;;;5032653;28;20040;-26
2022/08/13 04:00:52;;;;;;;2.75;0.95;;;25.80;61.20;;;;;;5032381;28;20510;-26
2022/08/13 04:03:30;;;;;;;1.70;0.70;;;25.80;61.20;;;;;;5032589;28;20041;-26
2022/08/13 04:05:58;;;;;;;1.23;0.77;;;25.80;61.30;;;;;;5032777;28;20503;-26
2022/08/13 04:08:29;;;;;;;1.25;0.70;;;25.80;61.30;;;;;;5032591;28;20029;-26
2022/08/13 04:10:56;;;;;;;0.75;0.60;;;25.80;61.30;;;;;;5032547;28;20018;-26
2022/08/13 04:13:24;;;;;;;1.80;0.55;;;25.80;61.30;;;;;;5032218;28;20095;-26
2022/08/13 04:15:50;;;;;;;1.17;0.60;;;25.80;61.30;;;;;;5032459;28;20608;-26
2022/08/13 04:18:16;;;;;;;4.13;0.80;;;25.70;61.30;;;;;;5032251;28;20037;-26
2022/08/13 04:20:54;;;;;;;0.90;0.60;;;25.70;61.30;;;;;;5032540;28;20104;-26
2022/08/13 04:23:21;;;;;;;2.65;0.70;;;25.70;61.20;;;;;;5032292;28;20479;-26
2022/08/13 04:25:50;;;;;;;1.70;0.60;;;25.70;61.30;;;;;;5032299;28;20047;-26
2022/08/13 04:28:21;;;;;;;1.38;0.88;;;25.70;61.30;;;;;;5032344;28;20032;-26
2022/08/13 04:30:47;;;;;;;1.63;0.70;;;25.70;61.30;;;;;;5032072;28;20453;-26
2022/08/13 04:33:15;;;;;;;1.65;0.65;;;25.70;62.10;;;;;;5032102;28;20022;-26
2022/08/13 04:35:41;;;;;;;0.70;0.70;;;25.70;61.30;;;;;;5032234;28;20044;-26
2022/08/13 04:38:07;;;;;;;1.08;0.60;;;25.70;61.30;;;;;;5032496;28;20104;-26
2022/08/13 04:40:37;;;;;;;1.60;0.80;;;25.70;61.50;;;;;;5031741;28;20064;-26
2022/08/13 04:43:04;;;;;;;1.60;0.70;;;25.60;61.40;;;;;;5032068;28;20022;-26
2022/08/13 04:45:30;;;;;;;1.10;0.70;;;25.60;61.40;;;;;;5032042;28;20111;-26
2022/08/13 04:48:07;;;;;;;2.40;0.70;;;25.60;61.40;;;;;;5031982;28;20490;-26
2022/08/13 04:50:34;;;;;;;0.75;0.75;;;25.60;61.50;;;;;;5031888;28;20029;-26
2022/08/13 04:53:20;;;;;;;1.20;0.68;;;25.60;61.50;;;;;;5031731;28;20029;-26
2022/08/13 04:55:47;;;;;;;1.23;0.80;;;25.60;61.50;;;;;;5032102;28;20048;-26
2022/08/13 04:58:12;;;;;;;1.58;0.90;;;25.50;61.50;;;;;;5031861;28;20470;-26
2022/08/13 05:00:38;;;;;;;3.65;0.80;;;25.50;61.50;;;;;;5031862;28;20027;-26
2022/08/13 05:03:18;;;;;;;0.98;0.70;;;25.50;61.50;;;;;;5031766;28;20064;-26
2022/08/13 05:05:46;;;;;;;2.88;0.85;;;25.50;61.60;;;;;;5031925;28;20022;-26
2022/08/13 05:08:14;;;;;;;0.90;0.73;;;25.50;61.60;;;;;;5031952;28;20033;-26
2022/08/13 05:10:40;;;;;;;0.77;0.57;;;25.50;61.70;;;;;;5031622;28;20025;-26
2022/08/13 05:13:24;;;;;;;0.90;0.60;;;25.50;61.70;;;;;;5053312;23;20494;-24
2022/08/13 05:15:51;;;;;;;2.28;0.80;;;25.50;61.70;;;;;;5031452;28;20018;-24
2022/08/13 05:18:18;;;;;;;1.02;0.70;;;25.50;61.80;;;;;;5014053;28;20052;-24
2022/08/13 05:20:44;;;;;;;0.93;0.68;;;25.50;61.80;;;;;;5031737;28;20030;-24
2022/08/13 05:23:11;;;;;;;2.67;0.73;;;25.50;61.90;;;;;;5031780;28;20021;-24
2022/08/13 05:25:37;;;;;;;1.38;0.93;;;25.50;61.90;;;;;;5031846;28;20093;-24
2022/08/13 05:28:03;;;;;;;1.85;0.80;;;25.50;61.90;;;;;;5031843;28;20049;-24
2022/08/13 05:30:29;;;;;;;2.40;0.88;;;25.50;62.00;;;;;;5031675;28;20025;-24
2022/08/13 05:32:57;;;;;;;2.33;0.70;;;25.50;62.00;;;;;;5032041;28;20113;-24
2022/08/13 05:35:25;;;;;;;0.90;0.60;;;25.50;62.00;;;;;;5014637;28;20030;-24
2022/08/13 05:37:51;;;;;;;1.15;0.85;;;25.50;62.10;;;;;;5031936;28;20025;-24
2022/08/13 05:40:17;;;;;;;0.70;0.50;;;25.50;62.10;;;;;;5031485;28;20032;-23
2022/08/13 05:42:43;;;;;;;1.00;0.50;;;25.40;62.10;;;;;;5032098;28;20459;-24
2022/08/13 05:45:09;;;;;;;0.98;0.52;;;25.50;62.20;;;;;;5031680;28;20025;-24
2022/08/13 05:47:36;;;;;;;2.25;0.85;;;25.50;62.20;;;;;;5032025;28;20025;-24
2022/08/13 05:50:07;;;;;;;1.75;0.80;;;25.50;63.20;;;;;;5031395;28;20151;-24
2022/08/13 05:52:34;;;;;;;1.58;0.77;;;25.40;62.30;;;;;;5031785;28;20475;-24
2022/08/13 05:55:00;;;;;;;2.05;0.70;;;25.40;62.30;;;;;;5031953;28;20104;-24
2022/08/13 05:57:26;;;;;;;4.18;0.95;;;25.40;62.40;;;;;;5031616;28;20105;-24
2022/08/13 06:05:22;;;;;;;1.15;0.77;;;25.40;62.60;;;;;;5034145;28;20309;-24
2022/08/13 06:07:48;;;;;;;0.93;0.82;;;25.40;62.70;;;;;;5035432;28;20025;-24
2022/08/13 06:10:14;;;;;;;1.13;0.80;;;25.40;62.80;;;;;;5034744;28;20037;-24
2022/08/13 06:12:43;;;;;;;2.38;0.80;;;25.40;62.80;;;;;;5016959;28;20116;-24
2022/08/13 06:15:11;;;;;;;1.65;0.80;;;25.40;62.80;;;;;;5035052;28;20051;-24
2022/08/13 06:17:38;;;;;;;3.05;1.00;;;25.40;62.90;;;;;;5034887;28;20491;-23
2022/08/13 06:20:05;;;;;;;3.40;1.00;;;25.40;63.00;;;;;;5034641;28;20052;-24
2022/08/13 06:22:37;;;;;;;2.55;0.80;;;25.40;63.00;;;;;;5034839;28;20112;-24
2022/08/13 06:25:05;;;;;;;1.10;0.80;;;25.40;63.10;;;;;;5034854;28;20037;-24
2022/08/13 06:27:32;;;;;;;0.93;0.60;;;25.40;63.10;;;;;;5017144;28;20033;-24
2022/08/13 06:29:58;;;;;;;3.00;0.88;;;25.40;63.20;;;;;;5034557;28;20029;-23
2022/08/13 06:32:24;;;;;;;1.67;0.90;;;25.40;63.20;;;;;;5034650;28;20478;-24
2022/08/13 06:34:51;;;;;;;2.97;0.75;;;25.40;63.20;;;;;;5034967;28;20033;-24
2022/08/13 06:37:17;;;;;;;2.38;0.82;;;25.40;63.30;;;;;;5034684;28;20541;-24
2022/08/13 06:39:44;;;;;;;0.77;0.63;;;25.40;63.30;;;;;;5034588;28;20471;-24
2022/08/13 06:42:11;;;;;;;0.80;0.70;;;25.40;63.40;;;;;;5034459;28;20562;-24
2022/08/13 06:44:39;;;;;;;1.08;0.63;;;25.40;63.40;;;;;;5016301;28;20035;-24
2022/08/13 06:47:05;;;;;;;1.42;0.75;;;25.40;63.50;;;;;;5016714;28;20282;-24
2022/08/13 06:49:32;;;;;;;1.48;0.90;;;25.40;63.60;;;;;;5034146;28;20075;-24
2022/08/13 06:51:59;;;;;;;1.70;0.90;;;25.40;63.60;;;;;;5034170;28;20028;-23
2022/08/13 06:54:25;;;;;;;1.60;0.90;;;25.40;63.70;;;;;;5034132;28;20506;-24
2022/08/13 06:56:56;;;;;;;0.82;0.70;;;25.40;63.70;;;;;;5034272;28;20030;-24
2022/08/13 06:59:23;;;;;;;1.55;0.90;;;25.40;63.80;;;;;;5034405;28;20029;-24
2022/08/13 07:01:59;;;;;;;1.08;0.70;;;25.40;63.80;;;;;;5034139;28;20471;-24
2022/08/13 07:04:25;;;;;;;2.20;0.82;;;25.40;63.90;;;;;;5034338;28;20021;-24
2022/08/13 07:06:52;;;;;;;1.55;0.90;;;25.40;63.90;;;;;;5034258;28;20446;-24
2022/08/13 07:09:19;;;;;;;1.15;0.80;;;25.40;64.00;;;;;;5033956;28;20512;-24
2022/08/13 07:11:45;;;;;;;1.52;0.85;;;25.40;64.00;;;;;;5015722;28;20544;-23
2022/08/13 07:14:16;;;;;;;3.63;0.85;;;25.40;64.00;;;;;;5033595;28;20596;-24
2022/08/13 07:16:44;;;;;;;2.00;0.80;;;25.40;64.10;;;;;;5033521;28;20029;-24
2022/08/13 07:19:11;;;;;;;1.23;0.90;;;25.50;64.20;;;;;;5033601;28;20017;-23
2022/08/13 07:21:39;;;;;;;1.58;0.70;;;25.50;64.40;;;;;;5016003;28;20017;-24
2022/08/13 07:24:07;;;;;;;1.17;0.90;;;25.50;64.40;;;;;;5033736;28;20100;-24
2022/08/13 07:26:34;;;;;;;1.73;0.80;;;25.50;64.40;;;;;;5033543;28;20536;-24
2022/08/13 07:29:01;;;;;;;0.95;0.68;;;25.50;64.50;;;;;;5033249;28;20382;-24
2022/08/13 07:31:29;;;;;;;1.63;0.82;;;25.50;64.50;;;;;;5033303;28;20109;-23
2022/08/13 07:33:57;;;;;;;1.33;0.82;;;25.50;64.50;;;;;;5033362;28;20056;-23
2022/08/13 07:36:29;;;;;;;1.52;0.90;;;25.50;64.50;;;;;;5033478;28;20116;-24
2022/08/13 07:38:55;;;;;;;1.40;0.80;;;25.50;64.60;;;;;;5033271;28;20478;-24
2022/08/13 07:41:22;;;;;;;1.48;0.73;;;25.50;64.50;;;;;;5033044;28;20030;-24
2022/08/13 07:43:48;;;;;;;1.60;0.90;;;25.50;64.40;;;;;;5033165;28;20014;-23
2022/08/13 07:46:17;;;;;;;1.70;0.80;;;25.50;64.40;;;;;;5034089;28;20057;-24
2022/08/13 07:48:52;;;;;;;3.40;0.90;;;25.60;64.60;;;;;;5033665;28;20026;-23
2022/08/13 07:51:22;;;;;;;2.63;0.90;;;25.40;66.20;;;;;;5033582;28;20025;-24
2022/08/13 07:53:53;;;;;;;1.90;0.80;;;25.30;66.00;;;;;;5033061;28;20092;-24
2022/08/13 07:56:30;;;;;;;3.58;0.88;;;25.40;66.20;;;;;;5032955;28;20029;-24
2022/08/13 07:59:06;;;;;;;3.03;1.05;;;25.40;66.40;;;;;;5015043;28;20030;-24
2022/08/13 08:01:42;;;;;;;3.58;0.90;;;25.50;66.40;;;;;;5032788;28;20075;-23
2022/08/13 08:04:12;;;;;;;1.40;0.93;;;25.50;66.20;;;;;;5033023;28;20127;-24
2022/08/13 08:06:39;;;;;;;1.05;0.95;;;25.60;66.00;;;;;;5033161;28;20453;-24
2022/08/13 08:09:07;;;;;;;1.98;0.80;;;25.60;65.80;;;;;;5032865;28;20017;-24
2022/08/13 08:14:19;;;;;;;2.80;0.85;;;25.70;65.60;;;;;;5032990;28;20032;-24
2022/08/13 08:16:45;;;;;;;4.90;0.98;;;25.80;65.50;;;;;;5014743;28;20079;-24
2022/08/13 08:19:14;;;;;;;2.05;0.98;;;25.80;65.30;;;;;;5014847;28;20025;-24
2022/08/13 08:21:41;;;;;;;1.15;0.70;;;25.80;65.30;;;;;;5032457;28;20467;-24
2022/08/13 08:24:07;;;;;;;3.72;1.10;;;25.80;65.10;;;;;;5032410;28;20018;-24
2022/08/13 08:26:35;;;;;;;1.73;0.77;;;25.90;65.20;;;;;;5032353;28;20391;-24
2022/08/13 08:29:05;;;;;;;2.25;0.82;;;25.90;65.10;;;;;;5031826;28;20052;-24
2022/08/13 08:31:33;;;;;;;1.95;0.88;;;25.90;65.00;;;;;;5031554;28;20041;-24
2022/08/13 08:34:01;;;;;;;1.80;0.90;;;25.90;65.00;;;;;;5032007;28;20364;-24
2022/08/13 08:36:28;;;;;;;1.08;0.70;;;25.90;65.00;;;;;;5031991;28;20112;-24
2022/08/13 08:44:32;;;;;;;1.15;0.80;;;26.00;65.00;;;;;;5032905;28;20032;-24
2022/08/13 08:47:01;;;;;;;0.90;0.60;;;25.90;64.90;;;;;;5032299;28;20029;-24
2022/08/13 08:49:30;;;;;;;0.90;0.70;;;25.90;64.90;;;;;;5032305;28;20030;-24
2022/08/13 08:51:57;;;;;;;1.05;0.75;;;25.90;64.80;;;;;;5031929;28;20543;-24
2022/08/13 08:54:24;;;;;;;0.55;0.55;;;26.00;64.90;;;;;;5031946;28;20406;-24
2022/08/13 08:56:55;;;;;;;2.47;0.52;;;26.00;64.90;;;;;;5031923;28;20036;-24
2022/08/13 08:59:28;;;;;;;1.15;0.77;;;25.90;64.80;;;;;;5031886;28;20493;-24
2022/08/13 09:01:55;;;;;;;1.83;0.73;;;26.00;64.90;;;;;;5014266;28;20041;-24
2022/08/13 09:04:28;;;;;;;0.95;0.70;;;26.00;64.90;;;;;;5014257;28;20298;-24
2022/08/13 09:06:55;;;;;;;2.05;0.77;;;26.00;64.90;;;;;;5031857;28;20030;-24
2022/08/13 09:09:21;;;;;;;1.40;0.70;;;26.00;64.90;;;;;;5013935;28;20061;-24
2022/08/13 09:11:49;;;;;;;1.10;0.60;;;26.00;64.90;;;;;;5031732;28;20034;-24
2022/08/13 09:14:15;;;;;;;1.52;0.80;;;26.00;65.00;;;;;;5032029;28;20437;-24
2022/08/13 09:16:41;;;;;;;0.95;0.60;;;26.00;64.90;;;;;;5032585;28;20060;-24
2022/08/13 09:19:13;;;;;;;2.50;0.70;;;26.00;64.80;;;;;;5032411;28;20025;-24
2022/08/13 09:21:46;;;;;;;0.70;0.50;;;26.00;64.80;;;;;;5031718;28;20034;-24
2022/08/13 09:24:15;;;;;;;1.70;0.63;;;26.10;64.90;;;;;;5031664;28;20104;-24
2022/08/13 09:26:45;;;;;;;0.70;0.70;;;26.10;64.80;;;;;;5031732;28;20071;-24
2022/08/13 09:29:18;;;;;;;0.90;0.73;;;26.10;64.80;;;;;;5031742;28;20439;-24
2022/08/13 09:31:48;;;;;;;1.30;0.75;;;26.00;64.80;;;;;;5031659;28;20076;-24
2022/08/13 09:34:14;;;;;;;1.25;0.60;;;26.00;64.80;;;;;;5014461;28;20022;-24
2022/08/13 09:36:41;;;;;;;2.25;1.05;;;26.00;64.80;;;;;;5031527;28;20025;-24
2022/08/13 09:39:07;;;;;;;0.70;0.60;;;26.00;65.60;;;;;;5031905;28;20022;-24
2022/08/13 09:41:41;;;;;;;1.83;0.82;;;26.00;64.80;;;;;;5035381;28;20048;-24
2022/08/13 09:44:07;;;;;;;1.50;0.60;;;26.00;64.90;;;;;;5035645;28;20025;-24
2022/08/13 09:46:34;;;;;;;2.42;0.80;;;26.00;64.80;;;;;;5035420;28;20109;-24
2022/08/13 09:49:00;;;;;;;0.90;0.68;;;26.00;64.80;;;;;;5035079;28;20029;-24
2022/08/13 09:51:31;;;;;;;0.85;0.60;;;26.00;64.90;;;;;;5035125;28;20029;-24
2022/08/13 09:53:57;;;;;;;1.10;0.68;;;26.00;64.90;;;;;;5035334;28;20391;-24
2022/08/13 09:56:22;;;;;;;1.05;0.70;;;26.00;64.90;;;;;;5035127;28;20028;-24
2022/08/13 09:58:50;;;;;;;1.02;0.60;;;26.00;64.90;;;;;;5035010;28;20029;-24
2022/08/13 10:01:20;;;;;;;1.23;0.68;;;26.00;64.90;;;;;;5035214;28;20060;-24
2022/08/13 10:03:48;;;;;;;1.35;0.60;;;26.00;65.00;;;;;;5035038;28;20045;-24
2022/08/13 10:06:14;;;;;;;0.77;0.60;;;26.00;65.00;;;;;;5034958;28;20072;-24
2022/08/13 10:08:40;;;;;;;2.47;1.20;;;26.00;65.00;;;;;;5016935;28;20367;-24
2022/08/13 10:11:05;;;;;;;1.35;0.90;;;26.00;64.40;;;;;;5034987;28;20032;-24
2022/08/13 10:13:33;;;;;;;2.00;0.80;;;26.00;64.60;;;;;;5035204;28;20045;-24
2022/08/13 10:15:59;;;;;;;4.20;1.00;;;26.00;64.60;;;;;;5034864;28;20482;-23
2022/08/13 10:18:27;;;;;;;2.85;1.00;;;26.00;64.60;;;;;;5034965;28;20021;-24
2022/08/13 10:20:53;;;;;;;2.15;1.00;;;26.00;64.60;;;;;;5017025;28;20029;-24
2022/08/13 10:23:19;;;;;;;2.03;1.00;;;26.10;65.50;;;;;;5034677;28;20017;-23
2022/08/13 10:25:46;;;;;;;2.17;0.98;;;26.10;64.70;;;;;;5034629;28;20024;-24
2022/08/13 10:28:21;;;;;;;2.00;1.10;;;26.10;64.70;;;;;;5034534;28;20025;-24
2022/08/13 10:30:46;;;;;;;;;;;26.10;64.70;;;;;;5035299;28;20025;-24
2022/08/13 10:33:14;;;;;;;1.98;0.80;;;26.20;64.70;;;;;;5034930;28;19916;-24
2022/08/13 10:35:40;;;;;;;1.67;0.95;;;26.10;64.60;;;;;;5017030;28;20032;-24
2022/08/13 10:38:08;;;;;;;2.20;1.00;;;26.20;64.60;;;;;;5034545;28;20076;-24
2022/08/13 10:40:34;;;;;;;1.30;0.90;;;26.20;64.60;;;;;;5034246;28;20553;-24
2022/08/13 10:43:00;;;;;;;1.15;0.90;;;26.20;64.60;;;;;;5033592;28;20060;-24
2022/08/13 10:45:29;;;;;;;0.93;0.75;;;26.20;64.60;;;;;;5034056;28;20022;-24
2022/08/13 10:47:55;;;;;;;1.60;0.90;;;26.20;64.60;;;;;;5034082;28;20024;-24
2022/08/13 10:50:30;;;;;;;2.83;0.82;;;26.30;64.60;;;;;;5015873;28;20029;-24
2022/08/13 10:52:57;;;;;;;2.63;1.08;;;26.20;64.60;;;;;;5016367;28;20053;-24
2022/08/13 10:55:24;;;;;;;3.13;0.93;;;26.30;64.60;;;;;;5033976;28;20030;-24
2022/08/13 10:57:50;;;;;;;1.13;0.80;;;26.30;64.60;;;;;;5034054;28;20025;-24
2022/08/13 11:00:22;;;;;;;1.60;0.90;;;26.30;64.60;;;;;;5033909;28;20104;-24
2022/08/13 11:02:50;;;;;;;1.42;0.90;;;26.30;64.60;;;;;;5034253;28;20021;-24
2022/08/13 11:05:17;;;;;;;2.08;0.90;;;26.30;64.60;;;;;;5034068;28;20534;-24
2022/08/13 11:07:47;;;;;;;2.50;1.20;;;26.30;64.60;;;;;;5033122;28;20083;-24
2022/08/13 11:10:14;;;;;;;1.77;0.80;;;26.30;64.60;;;;;;5033105;28;20032;-24
2022/08/13 11:12:44;;;;;;;1.15;0.80;;;26.30;64.60;;;;;;5034369;28;20040;-24
2022/08/13 11:15:10;;;;;;;3.05;1.20;;;26.30;64.50;;;;;;5033559;28;20395;-24
2022/08/13 11:17:36;;;;;;;1.65;0.98;;;26.30;64.50;;;;;;5016429;28;20030;-24
2022/08/13 11:20:13;;;;;;;2.28;0.88;;;26.30;64.40;;;;;;5033873;28;20100;-24
2022/08/13 11:22:39;;;;;;;2.00;1.05;;;26.30;64.40;;;;;;5033483;28;20521;-24
2022/08/13 11:25:05;;;;;;;2.90;1.10;;;26.20;64.40;;;;;;5033648;28;20104;-24
2022/08/13 11:27:34;;;;;;;1.50;0.95;;;26.30;64.50;;;;;;5033867;28;20030;-24
2022/08/13 11:29:59;;;;;;;1.58;0.93;;;26.20;64.50;;;;;;5033332;28;20040;-23
2022/08/13 11:32:25;;;;;;;1.15;0.90;;;26.20;64.50;;;;;;5033580;28;20105;-24
2022/08/13 11:34:51;;;;;;;0.93;0.80;;;26.20;64.50;;;;;;5033346;28;20044;-24
2022/08/13 11:37:16;;;;;;;0.98;0.80;;;26.20;64.90;;;;;;5033397;28;20386;-23
2022/08/13 11:39:42;;;;;;;1.77;1.00;;;26.20;64.40;;;;;;5033213;28;20088;-24
2022/08/13 11:42:08;;;;;;;3.83;0.93;;;26.10;61.30;;;;;;5033175;28;20021;-23
2022/08/13 11:44:33;;;;;;;7.93;0.98;;;26.10;61.60;;;;;;5033212;28;20025;-24
2022/08/13 11:46:59;;;;;;;1.73;1.00;;;26.00;62.10;;;;;;5033131;28;20030;-24
2022/08/13 11:49:25;;;;;;;1.77;0.90;;;26.00;62.40;;;;;;5032850;28;20470;-24
2022/08/13 11:51:50;;;;;;;3.35;0.80;;;26.10;62.70;;;;;;5032773;28;20479;-24
2022/08/13 11:54:18;;;;;;;1.70;0.90;;;26.10;62.80;;;;;;5032985;28;20040;-24
2022/08/13 11:56:44;;;;;;;3.00;1.00;;;26.10;63.00;;;;;;5033005;28;20105;-24
2022/08/13 11:59:09;;;;;;;2.55;1.08;;;26.10;63.00;;;;;;5032696;28;20141;-24
2022/08/13 12:01:36;;;;;;;1.73;1.00;;;26.20;63.20;;;;;;5032447;28;20026;-24
2022/08/13 12:04:02;;;;;;;1.63;1.00;;;26.20;63.30;;;;;;5032442;28;20021;-24
2022/08/13 12:06:27;;;;;;;1.73;1.00;;;26.20;63.30;;;;;;5032681;28;20022;-24
2022/08/13 12:08:53;;;;;;;2.38;1.13;;;26.20;63.30;;;;;;5032684;28;20100;-24
2022/08/13 12:11:19;;;;;;;3.22;0.90;;;26.30;63.40;;;;;;5032447;28;20483;-24
2022/08/13 12:13:45;;;;;;;2.53;1.17;;;26.30;63.40;;;;;;5015063;28;20047;-24
2022/08/13 12:16:10;;;;;;;1.30;0.85;;;26.30;63.30;;;;;;5032643;28;20095;-24
2022/08/13 12:18:36;;;;;;;1.55;0.82;;;26.40;63.30;;;;;;5032254;28;20025;-24
2022/08/13 12:21:02;;;;;;;2.40;1.05;;;26.40;63.30;;;;;;5032284;28;20037;-24
2022/08/13 12:23:27;;;;;;;2.13;0.90;;;26.50;64.20;;;;;;5032371;28;20025;-24
2022/08/13 12:25:53;;;;;;;1.67;0.90;;;26.50;63.40;;;;;;5032444;28;20455;-24
2022/08/13 12:28:27;;;;;;;1.70;0.80;;;26.50;63.40;;;;;;5032650;28;20036;-24
2022/08/13 12:31:01;;;;;;;1.42;0.90;;;26.50;63.30;;;;;;5032251;28;20033;-24
2022/08/13 12:33:29;;;;;;;1.10;0.75;;;26.50;63.30;;;;;;5032193;28;20046;-24
2022/08/13 12:35:55;;;;;;;1.00;0.90;;;26.60;63.40;;;;;;5032336;28;20087;-24
2022/08/13 12:38:20;;;;;;;2.25;1.10;;;26.60;63.30;;;;;;5032011;28;20029;-24
2022/08/13 12:40:47;;;;;;;1.15;0.90;;;26.60;63.30;;;;;;5032083;28;20147;-24
2022/08/13 12:43:13;;;;;;;1.45;0.82;;;26.60;63.30;;;;;;5032067;28;20093;-24
2022/08/13 12:45:41;;;;;;;1.42;0.80;;;26.60;63.30;;;;;;5032060;28;20025;-24
2022/08/13 12:48:08;;;;;;;2.20;0.90;;;26.60;63.30;;;;;;5014238;28;20029;-24
2022/08/13 12:50:35;;;;;;;0.82;0.70;;;26.60;63.20;;;;;;5031832;28;20064;-24
2022/08/13 12:53:02;;;;;;;1.02;0.70;;;26.60;63.20;;;;;;5032085;28;20079;-24
2022/08/13 12:55:29;;;;;;;4.15;0.60;;;26.70;63.20;;;;;;5032011;28;20033;-24
2022/08/13 12:57:55;;;;;;;2.00;1.00;;;26.70;63.30;;;;;;5031734;28;20025;-24
2022/08/13 13:00:21;;;;;;;1.65;0.80;;;26.70;63.30;;;;;;5031614;28;20017;-24
2022/08/13 13:02:47;;;;;;;1.00;0.60;;;26.70;63.30;;;;;;5031800;28;20030;-24
2022/08/13 13:05:15;;;;;;;2.25;0.80;;;26.70;63.30;;;;;;5031812;28;20560;-24
2022/08/13 13:07:41;;;;;;;1.45;0.82;;;26.70;63.40;;;;;;5032057;28;20026;-24
2022/08/13 13:10:09;;;;;;;1.33;0.95;;;26.70;63.40;;;;;;5031629;28;20025;-24
2022/08/13 13:12:35;;;;;;;1.30;0.70;;;26.70;63.30;;;;;;5031640;28;20031;-24
2022/08/13 13:15:00;;;;;;;0.93;0.80;;;26.70;63.30;;;;;;5035320;28;20104;-24